createdAt,value
2022-12-04T00:01:16.874Z,2.40
2022-12-04T00:03:43.492Z,2.40
2022-12-04T00:06:12.622Z,2.30
2022-12-04T00:08:39.937Z,2.40
2022-12-04T00:11:07.961Z,2.40
2022-12-04T00:13:35.247Z,2.40
2022-12-04T00:16:04.495Z,2.40
2022-12-04T00:18:31.358Z,2.50
2022-12-04T00:20:57.854Z,2.40
2022-12-04T00:23:24.432Z,2.10
2022-12-04T00:25:53.233Z,2.20
2022-12-04T00:28:19.808Z,2.10
2022-12-04T00:30:46.876Z,2.20
2022-12-04T00:33:13.731Z,2.10
2022-12-04T00:35:40.720Z,2.20
2022-12-04T00:38:07.300Z,2.00
2022-12-04T00:40:34.055Z,2.10
2022-12-04T00:43:00.700Z,2.20
2022-12-04T00:45:27.368Z,1.80
2022-12-04T00:48:18.916Z,2.20
2022-12-04T00:50:45.786Z,1.90
2022-12-04T00:53:12.993Z,1.70
2022-12-04T00:55:40.765Z,1.60
2022-12-04T00:58:07.819Z,1.50
2022-12-04T01:00:38.343Z,1.30
2022-12-04T01:03:07.510Z,1.50
2022-12-04T01:05:44.167Z,1.60
2022-12-04T01:08:11.856Z,1.60
2022-12-04T01:10:39.750Z,1.50
2022-12-04T01:13:06.370Z,1.80
2022-12-04T01:15:33.084Z,1.70
2022-12-04T01:17:59.877Z,1.80
2022-12-04T01:20:26.415Z,1.70
2022-12-04T01:22:52.949Z,2.00
2022-12-04T01:25:19.459Z,1.80
2022-12-04T01:27:46.121Z,1.80
2022-12-04T01:30:13.159Z,1.90
2022-12-04T01:32:39.726Z,1.80
2022-12-04T01:35:06.728Z,1.90
2022-12-04T01:37:33.616Z,1.90
2022-12-04T01:40:00.375Z,1.60
2022-12-04T01:42:27.421Z,1.80
2022-12-04T01:45:30.981Z,1.80
2022-12-04T01:48:09.459Z,1.80
2022-12-04T01:50:36.251Z,1.90
2022-12-04T01:53:02.931Z,1.80
2022-12-04T01:55:30.692Z,1.70
2022-12-04T01:57:58.021Z,1.90
2022-12-04T02:00:24.678Z,1.80
2022-12-04T02:02:51.371Z,1.90
2022-12-04T02:05:19.938Z,2.10
2022-12-04T02:07:48.749Z,1.90
2022-12-04T02:10:17.135Z,1.80
2022-12-04T02:12:54.731Z,1.90
2022-12-04T02:16:03.260Z,2.10
2022-12-04T02:18:46.406Z,2.10
2022-12-04T02:21:33.813Z,2.00
2022-12-04T02:24:31.479Z,1.90
2022-12-04T02:27:09.063Z,1.90
2022-12-04T02:29:55.895Z,1.80
2022-12-04T02:32:28.926Z,1.90
2022-12-04T02:35:13.322Z,1.70
2022-12-04T02:37:44.321Z,1.80
2022-12-04T02:40:20.274Z,1.70
2022-12-04T02:42:55.823Z,1.80
2022-12-04T02:45:26.915Z,1.90
2022-12-04T02:47:54.659Z,1.90
2022-12-04T02:50:22.269Z,2.00
2022-12-04T02:53:03.803Z,1.90
2022-12-04T02:55:42.850Z,1.70
2022-12-04T02:58:16.617Z,1.60
2022-12-04T03:00:45.468Z,1.50
2022-12-04T03:03:18.278Z,1.70
2022-12-04T03:05:54.823Z,1.90
2022-12-04T03:08:33.059Z,2.00
2022-12-04T03:11:00.891Z,1.80
2022-12-04T03:13:38.623Z,1.90
2022-12-04T03:16:12.143Z,1.90
2022-12-04T03:18:44.050Z,2.00
2022-12-04T03:21:14.965Z,2.20
2022-12-04T03:23:46.336Z,2.30
2022-12-04T03:26:17.733Z,2.10
2022-12-04T03:28:49.282Z,1.80
2022-12-04T03:31:19.455Z,1.70
2022-12-04T03:33:47.409Z,1.60
2022-12-04T03:36:25.862Z,1.60
2022-12-04T03:38:52.314Z,2.00
2022-12-04T03:41:22.045Z,2.30
2022-12-04T03:44:18.240Z,2.30
2022-12-04T03:46:50.663Z,2.10
2022-12-04T03:49:23.167Z,2.00
2022-12-04T03:52:01.908Z,2.00
2022-12-04T03:54:43.304Z,2.20
2022-12-04T03:57:15.952Z,2.10
2022-12-04T03:59:55.882Z,2.30
2022-12-04T04:02:24.891Z,2.00
2022-12-04T04:04:53.354Z,1.70
2022-12-04T04:07:34.829Z,1.90
2022-12-04T04:10:06.506Z,2.00
2022-12-04T04:12:38.246Z,1.90
2022-12-04T04:15:31.021Z,2.00
2022-12-04T04:18:16.796Z,2.30
2022-12-04T04:21:22.029Z,2.50
2022-12-04T04:24:09.136Z,2.00
2022-12-04T04:26:38.268Z,1.80
2022-12-04T04:29:04.839Z,1.90
2022-12-04T04:31:48.179Z,2.10
2022-12-04T04:34:44.090Z,2.20
2022-12-04T04:37:27.534Z,2.20
2022-12-04T04:40:19.525Z,2.30
2022-12-04T04:43:04.803Z,2.30
2022-12-04T04:45:43.685Z,2.30
2022-12-04T04:48:15.040Z,2.30
2022-12-04T04:50:42.275Z,2.30
2022-12-04T04:53:21.477Z,2.20
2022-12-04T04:55:48.545Z,2.30
2022-12-04T04:58:18.251Z,2.40
2022-12-04T05:00:58.542Z,2.30
2022-12-04T05:03:25.902Z,2.40
2022-12-04T05:05:52.573Z,2.50
2022-12-04T05:08:19.195Z,2.30
2022-12-04T05:10:45.907Z,2.50
2022-12-04T05:13:13.477Z,2.20
2022-12-04T05:15:40.587Z,2.20
2022-12-04T05:18:07.354Z,2.10
2022-12-04T05:20:34.350Z,2.20
2022-12-04T05:23:00.946Z,2.20
2022-12-04T05:25:28.112Z,2.30
2022-12-04T05:27:54.696Z,2.50
2022-12-04T05:30:21.411Z,2.40
2022-12-04T05:32:48.042Z,2.10
2022-12-04T05:35:14.762Z,2.10
2022-12-04T05:37:41.383Z,2.30
2022-12-04T05:40:09.052Z,2.50
2022-12-04T05:42:35.579Z,2.60
2022-12-04T05:45:02.132Z,2.50
2022-12-04T05:47:28.937Z,2.50
2022-12-04T05:49:55.721Z,2.40
2022-12-04T05:52:22.497Z,2.60
2022-12-04T05:54:52.085Z,2.60
2022-12-04T05:57:23.179Z,2.20
2022-12-04T05:59:51.993Z,2.20
2022-12-04T06:02:18.653Z,2.40
2022-12-04T06:04:45.257Z,2.50
2022-12-04T06:07:11.909Z,2.40
2022-12-04T06:09:38.444Z,2.30
2022-12-04T06:12:05.593Z,2.40
2022-12-04T06:14:37.728Z,2.40
2022-12-04T06:17:06.025Z,2.50
2022-12-04T06:19:32.591Z,2.60
2022-12-04T06:21:59.107Z,2.20
2022-12-04T06:24:25.669Z,2.00
2022-12-04T06:27:27.384Z,1.80
2022-12-04T06:29:43.165Z,1.80
2022-12-04T06:32:09.918Z,2.20
2022-12-04T06:34:36.987Z,2.30
2022-12-04T06:37:03.620Z,2.20
2022-12-04T06:39:33.253Z,2.20
2022-12-04T06:41:59.820Z,2.50
2022-12-04T06:44:26.607Z,2.40
2022-12-04T06:46:54.780Z,2.20
2022-12-04T06:49:22.843Z,2.50
2022-12-04T06:51:49.392Z,2.30
2022-12-04T06:54:15.904Z,2.30
2022-12-04T06:56:42.482Z,2.00
2022-12-04T06:59:10.338Z,2.10
2022-12-04T07:01:36.890Z,2.20
2022-12-04T07:04:04.260Z,2.20
2022-12-04T07:06:34.346Z,2.30
2022-12-04T07:09:12.727Z,2.50
2022-12-04T07:11:40.221Z,2.50
2022-12-04T07:14:06.989Z,2.60
2022-12-04T07:16:38.649Z,2.50
2022-12-04T07:19:07.411Z,2.30
2022-12-04T07:21:34.628Z,2.40
2022-12-04T07:24:01.631Z,2.50
2022-12-04T07:26:29.519Z,2.30
2022-12-04T07:28:56.979Z,2.30
2022-12-04T07:31:24.819Z,2.20
2022-12-04T07:33:53.380Z,2.10
2022-12-04T07:36:20.470Z,2.20
2022-12-04T07:38:47.241Z,2.40
2022-12-04T07:41:14.338Z,2.30
2022-12-04T07:43:41.584Z,2.40
2022-12-04T07:46:14.012Z,2.50
2022-12-04T07:48:41.077Z,2.40
2022-12-04T07:51:15.877Z,2.20
2022-12-04T07:53:42.931Z,2.20
2022-12-04T07:56:10.713Z,2.30
2022-12-04T07:58:37.228Z,2.20
2022-12-04T08:01:06.696Z,2.20
2022-12-04T08:03:33.435Z,2.30
2022-12-04T08:06:01.562Z,2.20
2022-12-04T08:08:28.190Z,2.40
2022-12-04T08:10:54.701Z,2.80
2022-12-04T08:13:21.404Z,2.70
2022-12-04T08:15:48.099Z,2.30
2022-12-04T08:18:14.649Z,2.30
2022-12-04T08:20:41.256Z,2.40
2022-12-04T08:23:07.870Z,2.10
2022-12-04T08:25:34.394Z,2.20
2022-12-04T08:28:00.885Z,2.20
2022-12-04T08:30:27.377Z,2.40
2022-12-04T08:32:53.888Z,2.40
2022-12-04T08:35:20.337Z,2.30
2022-12-04T08:37:49.645Z,2.50
2022-12-04T08:40:16.238Z,2.40
2022-12-04T08:42:42.788Z,2.60
2022-12-04T08:45:09.974Z,2.40
2022-12-04T08:47:36.560Z,2.50
2022-12-04T08:50:03.201Z,2.60
2022-12-04T08:52:29.794Z,2.60
2022-12-04T08:54:56.277Z,2.50
2022-12-04T08:57:22.861Z,2.50
2022-12-04T08:59:49.419Z,2.40
2022-12-04T09:02:16.653Z,2.40
2022-12-04T09:04:43.237Z,2.30
2022-12-04T09:07:09.834Z,2.20
2022-12-04T09:09:36.444Z,2.70
2022-12-04T09:12:03.071Z,2.50
2022-12-04T09:14:29.607Z,2.50
2022-12-04T09:16:56.138Z,2.60
2022-12-04T09:19:23.167Z,2.50
2022-12-04T09:21:49.843Z,2.90
2022-12-04T09:24:16.435Z,2.90
2022-12-04T09:26:43.037Z,3.00
2022-12-04T09:29:10.530Z,3.10
2022-12-04T09:31:37.330Z,3.00
2022-12-04T09:34:03.916Z,3.10
2022-12-04T09:36:30.463Z,2.80
2022-12-04T09:38:57.669Z,2.80
2022-12-04T09:41:36.260Z,2.90
2022-12-04T09:44:22.216Z,3.00
2022-12-04T09:46:52.505Z,2.90
2022-12-04T09:49:27.841Z,2.80
2022-12-04T09:51:56.751Z,2.90
2022-12-04T09:54:27.300Z,2.90
2022-12-04T09:56:59.163Z,2.60
2022-12-04T09:59:28.047Z,2.60
2022-12-04T10:02:13.077Z,2.70
2022-12-04T10:04:39.581Z,2.90
2022-12-04T10:07:18.303Z,3.00
2022-12-04T10:10:15.623Z,2.70
2022-12-04T10:13:06.439Z,2.90
2022-12-04T10:15:55.310Z,3.00
2022-12-04T10:18:42.958Z,2.90
2022-12-04T10:21:23.943Z,3.00
2022-12-04T10:24:02.917Z,3.00
2022-12-04T10:26:34.968Z,3.10
2022-12-04T10:29:04.111Z,3.00
2022-12-04T10:31:31.416Z,2.90
2022-12-04T10:34:25.767Z,2.80
2022-12-04T10:36:55.336Z,2.90
2022-12-04T10:39:26.038Z,2.90
2022-12-04T10:41:54.858Z,3.00
2022-12-04T10:44:21.493Z,3.20
2022-12-04T10:46:49.284Z,3.50
2022-12-04T10:49:30.458Z,3.20
2022-12-04T10:51:57.124Z,3.30
2022-12-04T10:54:32.947Z,3.30
2022-12-04T10:57:05.331Z,3.20
2022-12-04T10:59:32.219Z,3.10
2022-12-04T11:02:27.263Z,3.20
2022-12-04T11:05:02.922Z,3.30
2022-12-04T11:07:32.415Z,3.10
2022-12-04T11:10:29.417Z,3.30
2022-12-04T11:12:57.889Z,3.40
2022-12-04T11:15:24.685Z,3.40
2022-12-04T11:17:52.608Z,3.30
2022-12-04T11:20:24.712Z,3.20
2022-12-04T11:22:59.499Z,3.00
2022-12-04T11:25:28.412Z,3.00
2022-12-04T11:27:58.473Z,3.10
2022-12-04T11:30:35.503Z,3.20
2022-12-04T11:33:03.452Z,3.50
2022-12-04T11:35:30.194Z,3.50
2022-12-04T11:38:07.816Z,3.90
2022-12-04T11:40:34.492Z,3.60
2022-12-04T11:43:05.347Z,3.40
2022-12-04T11:45:32.459Z,3.70
2022-12-04T11:48:02.137Z,3.70
2022-12-04T11:50:37.783Z,3.80
2022-12-04T11:53:12.592Z,3.70
2022-12-04T11:56:00.438Z,3.30
2022-12-04T11:58:46.497Z,3.10
2022-12-04T12:01:25.106Z,3.10
2022-12-04T12:04:22.812Z,3.20
2022-12-04T12:07:16.584Z,3.20
2022-12-04T12:09:55.665Z,3.30
2022-12-04T12:12:41.180Z,3.40
2022-12-04T12:15:23.373Z,3.40
2022-12-04T12:17:59.648Z,3.60
2022-12-04T12:20:42.667Z,3.60
2022-12-04T12:23:22.136Z,3.50
2022-12-04T12:26:12.671Z,3.20
2022-12-04T12:29:05.729Z,3.10
2022-12-04T12:31:47.643Z,3.10
2022-12-04T12:34:27.032Z,3.20
2022-12-04T12:37:00.552Z,3.00
2022-12-04T12:39:39.913Z,3.00
2022-12-04T12:42:09.538Z,3.10
2022-12-04T12:44:54.435Z,3.10
2022-12-04T12:47:24.143Z,3.00
2022-12-04T12:50:15.512Z,3.10
2022-12-04T12:52:52.973Z,2.90
2022-12-04T12:55:33.914Z,2.80
2022-12-04T12:58:09.522Z,3.00
2022-12-04T13:00:43.791Z,3.00
2022-12-04T13:03:55.959Z,3.30
2022-12-04T13:06:46.654Z,3.20
2022-12-04T13:09:31.515Z,3.30
2022-12-04T13:12:25.568Z,3.40
2022-12-04T13:14:56.926Z,3.60
2022-12-04T13:17:34.206Z,3.70
2022-12-04T13:20:09.648Z,3.50
2022-12-04T13:23:01.293Z,3.60
2022-12-04T13:25:57.331Z,3.30
2022-12-04T13:28:41.241Z,3.40
2022-12-04T13:31:53.746Z,3.10
2022-12-04T13:34:38.255Z,3.20
2022-12-04T13:37:46.920Z,3.40
2022-12-04T13:40:27.086Z,3.00
2022-12-04T13:43:05.408Z,3.30
2022-12-04T13:45:34.589Z,3.20
2022-12-04T13:48:05.339Z,3.20
2022-12-04T13:50:37.383Z,3.20
2022-12-04T13:53:37.576Z,3.40
2022-12-04T13:56:09.423Z,3.40
2022-12-04T13:58:37.534Z,3.30
2022-12-04T14:01:22.360Z,3.10
2022-12-04T14:03:51.079Z,3.30
2022-12-04T14:06:23.931Z,3.30
2022-12-04T14:09:05.057Z,3.40
2022-12-04T14:11:45.365Z,3.30
2022-12-04T14:14:26.989Z,3.40
2022-12-04T14:16:55.459Z,3.30
2022-12-04T14:19:30.696Z,3.30
2022-12-04T14:21:57.353Z,3.10
2022-12-04T14:24:35.357Z,3.10
2022-12-04T14:27:21.812Z,3.10
2022-12-04T14:29:52.895Z,3.20
2022-12-04T14:32:22.466Z,3.20
2022-12-04T14:34:49.413Z,3.20
2022-12-04T14:37:22.894Z,3.30
2022-12-04T14:39:50.137Z,3.40
2022-12-04T14:42:23.704Z,3.30
2022-12-04T14:44:58.951Z,3.30
2022-12-04T14:47:43.889Z,3.10
2022-12-04T14:50:20.652Z,3.30
2022-12-04T14:53:09.557Z,3.20
2022-12-04T14:55:44.877Z,3.20
2022-12-04T14:58:35.449Z,3.20
2022-12-04T15:01:05.150Z,3.30
2022-12-04T15:03:36.916Z,3.40
2022-12-04T15:06:08.986Z,3.50
2022-12-04T15:08:35.708Z,3.40
2022-12-04T15:11:25.054Z,3.40
2022-12-04T15:13:51.525Z,3.20
2022-12-04T15:16:21.228Z,3.10
2022-12-04T15:18:58.662Z,3.10
2022-12-04T15:21:33.208Z,3.30
2022-12-04T15:23:59.771Z,3.40
2022-12-04T15:26:26.946Z,3.30
2022-12-04T15:28:54.725Z,3.20
2022-12-04T15:31:35.941Z,3.30
2022-12-04T15:34:09.703Z,3.30
2022-12-04T15:36:50.197Z,3.50
2022-12-04T15:39:20.872Z,3.70
2022-12-04T15:41:47.914Z,3.70
2022-12-04T15:44:22.106Z,3.70
2022-12-04T15:46:48.704Z,3.90
2022-12-04T15:49:20.342Z,3.80
2022-12-04T15:51:47.771Z,3.90
2022-12-04T15:54:24.789Z,4.00
2022-12-04T15:56:58.915Z,3.80
2022-12-04T15:59:27.516Z,3.80
2022-12-04T16:01:54.518Z,4.00
2022-12-04T16:04:23.113Z,4.10
2022-12-04T16:06:51.558Z,4.10
2022-12-04T16:09:21.779Z,3.80
2022-12-04T16:11:57.776Z,3.60
2022-12-04T16:14:24.371Z,3.70
2022-12-04T16:16:52.762Z,3.60
2022-12-04T16:19:34.055Z,3.80
2022-12-04T16:22:05.119Z,3.70
2022-12-04T16:24:31.730Z,3.80
2022-12-04T16:26:59.957Z,3.90
2022-12-04T16:29:26.481Z,4.10
2022-12-04T16:31:57.060Z,3.80
2022-12-04T16:34:27.843Z,3.90
2022-12-04T16:36:54.356Z,3.90
2022-12-04T16:39:20.862Z,3.70
2022-12-04T16:41:47.393Z,3.60
2022-12-04T16:44:16.951Z,3.60
2022-12-04T16:46:43.864Z,3.70
2022-12-04T16:49:12.446Z,3.90
2022-12-04T16:51:43.034Z,3.90
2022-12-04T16:54:11.083Z,3.80
2022-12-04T16:56:37.606Z,4.00
2022-12-04T16:59:08.938Z,3.90
2022-12-04T17:01:42.809Z,3.80
2022-12-04T17:04:10.331Z,3.70
2022-12-04T17:06:36.949Z,3.80
2022-12-04T17:09:04.470Z,3.90
2022-12-04T17:11:31.121Z,4.00
2022-12-04T17:13:57.668Z,4.10
2022-12-04T17:16:28.908Z,3.80
2022-12-04T17:18:55.469Z,3.80
2022-12-04T17:21:22.034Z,4.00
2022-12-04T17:23:48.654Z,4.10
2022-12-04T17:26:15.602Z,4.00
2022-12-04T17:28:42.164Z,4.00
2022-12-04T17:31:14.651Z,3.90
2022-12-04T17:33:42.099Z,4.10
2022-12-04T17:36:14.262Z,4.30
2022-12-04T17:38:41.183Z,4.40
2022-12-04T17:41:09.063Z,4.20
2022-12-04T17:43:36.096Z,4.10
2022-12-04T17:46:08.745Z,4.20
2022-12-04T17:48:35.386Z,4.20
2022-12-04T17:51:22.665Z,4.10
2022-12-04T17:53:49.814Z,4.00
2022-12-04T17:56:19.848Z,3.90
2022-12-04T17:58:47.467Z,4.20
2022-12-04T18:01:17.534Z,4.30
2022-12-04T18:03:46.077Z,4.10
2022-12-04T18:06:23.077Z,4.10
2022-12-04T18:08:50.661Z,4.00
2022-12-04T18:11:23.120Z,3.90
2022-12-04T18:13:55.068Z,3.90
2022-12-04T18:16:22.105Z,3.80
2022-12-04T18:18:57.035Z,3.90
2022-12-04T18:21:24.035Z,4.10
2022-12-04T18:23:50.667Z,4.00
2022-12-04T18:26:21.905Z,4.10
2022-12-04T18:28:49.711Z,4.00
2022-12-04T18:31:18.105Z,3.80
2022-12-04T18:33:45.267Z,4.00
2022-12-04T18:36:24.117Z,4.30
2022-12-04T18:38:56.873Z,3.90
2022-12-04T18:41:23.982Z,4.10
2022-12-04T18:43:51.132Z,4.20
2022-12-04T18:46:18.231Z,4.30
2022-12-04T18:49:10.442Z,4.30
2022-12-04T18:51:45.814Z,4.30
2022-12-04T18:54:18.389Z,4.40
2022-12-04T18:56:45.105Z,4.30
2022-12-04T18:59:15.124Z,4.30
2022-12-04T19:01:42.379Z,4.30
2022-12-04T19:04:10.589Z,4.40
2022-12-04T19:06:39.408Z,4.20
2022-12-04T19:09:10.964Z,4.10
2022-12-04T19:11:39.030Z,4.10
2022-12-04T19:14:14.793Z,4.00
2022-12-04T19:16:45.022Z,4.00
2022-12-04T19:19:12.801Z,4.10
2022-12-04T19:21:39.621Z,4.10
2022-12-04T19:24:06.656Z,4.10
2022-12-04T19:26:34.012Z,4.20
2022-12-04T19:29:02.292Z,4.10
2022-12-04T19:31:32.842Z,4.00
2022-12-04T19:33:59.757Z,3.90
2022-12-04T19:36:28.297Z,4.00
2022-12-04T19:38:56.777Z,4.10
2022-12-04T19:41:25.811Z,4.20
2022-12-04T19:43:55.704Z,4.30
2022-12-04T19:46:23.213Z,4.30
2022-12-04T19:48:50.342Z,4.40
2022-12-04T19:51:21.302Z,4.30
2022-12-04T19:53:48.672Z,4.10
2022-12-04T19:56:17.663Z,4.10
2022-12-04T19:58:44.814Z,4.20
2022-12-04T20:01:14.983Z,4.10
2022-12-04T20:03:42.010Z,4.00
2022-12-04T20:06:14.584Z,4.10
2022-12-04T20:08:41.991Z,4.20
2022-12-04T20:11:11.724Z,4.30
2022-12-04T20:13:39.522Z,4.40
2022-12-04T20:16:08.322Z,4.30
2022-12-04T20:18:36.737Z,4.20
2022-12-04T20:21:04.157Z,4.10
2022-12-04T20:23:30.864Z,4.00
2022-12-04T20:26:03.882Z,4.20
2022-12-04T20:28:30.417Z,4.30
2022-12-04T20:30:57.539Z,4.10
2022-12-04T20:33:24.513Z,4.30
2022-12-04T20:35:51.177Z,4.10
2022-12-04T20:38:17.998Z,4.00
2022-12-04T20:40:44.702Z,4.30
2022-12-04T20:43:11.300Z,4.00
2022-12-04T20:45:37.890Z,4.10
2022-12-04T20:48:04.714Z,4.30
2022-12-04T20:50:31.241Z,4.20
2022-12-04T20:52:57.769Z,4.30
2022-12-04T20:55:24.378Z,4.10
2022-12-04T20:57:51.053Z,4.00
2022-12-04T21:00:17.901Z,4.00
2022-12-04T21:02:44.607Z,4.00
2022-12-04T21:05:11.277Z,3.90
2022-12-04T21:07:37.867Z,4.10
2022-12-04T21:10:06.525Z,4.20
2022-12-04T21:12:51.919Z,4.20
2022-12-04T21:15:37.332Z,4.00
2022-12-04T21:18:04.249Z,4.10
2022-12-04T21:20:30.895Z,3.90
2022-12-04T21:22:57.438Z,4.00
2022-12-04T21:25:25.260Z,4.10
2022-12-04T21:27:52.187Z,4.50
2022-12-04T21:30:19.349Z,4.70
2022-12-04T21:32:45.998Z,4.80
2022-12-04T21:35:12.595Z,4.60
2022-12-04T21:37:39.082Z,4.50
2022-12-04T21:40:06.485Z,4.50
2022-12-04T21:42:34.437Z,4.20
2022-12-04T21:45:02.539Z,4.40
2022-12-04T21:47:30.101Z,4.40
2022-12-04T21:49:57.078Z,4.30
2022-12-04T21:52:24.472Z,4.20
2022-12-04T21:54:52.248Z,4.10
2022-12-04T21:57:19.177Z,4.10
2022-12-04T21:59:45.789Z,4.20
2022-12-04T22:02:13.431Z,4.20
2022-12-04T22:04:40.835Z,4.50
2022-12-04T22:07:07.536Z,4.40
2022-12-04T22:09:34.334Z,4.30
2022-12-04T22:12:04.191Z,4.40
2022-12-04T22:14:41.435Z,4.30
2022-12-04T22:17:07.998Z,4.10
2022-12-04T22:19:35.847Z,4.10
2022-12-04T22:22:02.350Z,4.40
2022-12-04T22:24:29.048Z,4.20
2022-12-04T22:26:55.562Z,4.10
2022-12-04T22:32:08.653Z,4.10
2022-12-04T22:34:35.435Z,4.20
2022-12-04T22:37:01.954Z,4.20
2022-12-04T22:39:28.534Z,4.10
2022-12-04T22:41:55.119Z,4.30
2022-12-04T22:44:21.847Z,4.20
2022-12-04T22:46:48.485Z,3.90
2022-12-04T22:49:15.152Z,4.10
2022-12-04T22:51:41.710Z,4.20
2022-12-04T22:54:12.910Z,4.40
2022-12-04T22:56:39.853Z,4.40
2022-12-04T22:59:06.409Z,4.30
2022-12-04T23:01:34.034Z,4.10
2022-12-04T23:04:02.940Z,4.30
2022-12-04T23:06:31.060Z,4.50
2022-12-04T23:09:00.558Z,4.30
2022-12-04T23:11:27.649Z,4.30
2022-12-04T23:14:00.207Z,4.30
2022-12-04T23:16:28.459Z,4.50
2022-12-04T23:18:56.122Z,4.40
2022-12-04T23:21:23.747Z,4.30
2022-12-04T23:23:52.125Z,4.30
2022-12-04T23:26:24.711Z,4.30
2022-12-04T23:28:51.337Z,4.30
2022-12-04T23:31:18.528Z,4.20
2022-12-04T23:33:45.296Z,4.30
2022-12-04T23:36:12.912Z,4.30
2022-12-04T23:38:40.898Z,4.20
2022-12-04T23:41:13.341Z,4.10
2022-12-04T23:43:40.711Z,4.30
2022-12-04T23:46:11.193Z,4.30
2022-12-04T23:48:40.078Z,4.40
2022-12-04T23:51:07.730Z,4.50
2022-12-04T23:53:34.408Z,4.40
2022-12-04T23:56:06.341Z,4.40
2022-12-04T23:58:33.690Z,4.40
